Terminal Aerodrome Forecast
Issued by NWS

Home | Current Version | Previous Version | Text Only | Print | Product List | Glossary On
Versions: 1 2 3 4 5 6 7 8 9 10 11 12 13 14 15 16
014
FTUS42 KMHX 221143
TAFPGV
TAF
KPGV 221143Z 2212/2312 00000KT 3/4SM BR VV005
     FM221230 VRB03KT P6SM BKN250
     FM221800 12005KT P6SM SCT040
     FM230800 VRB03KT 5SM BR SCT025
      AMD LTD TO CLD VIS AND WIND=

USA.gov is the U.S. government's official web portal to all federal, state and local government web resources and services.